EGVO

RAF Odiham Airport

Odiham, United Kingdom
METAR EGVO 181250Z 17013KT 9999 FEW030 BKN110 BKN200 06/00 Q1014 BLU NOSIG
Observed Flight Rules
Jan-18 @ 12:50 UTC (an hour ago) Visual Flight Rules
Wind Visibility Clouds
170° at 13 knots 10,000+ meters
  • Few at 3,000' AGL
  • Broken at 11,000' AGL
  • Broken at 20,000' AGL
Temperatures Readings
Current 6°C / 43°F
Dewpoint 0°C / 32°F
Humidity 66%
Altimeter 29.94" Hg
Pressure 1013.92 hPa
Elevation 123
METAR EGVO 181250Z 17013KT 9999 FEW030 BKN110 BKN200 06/00 Q1014 BLU NOSIG
Observed Flight Rules
Jan-18 @ 12:50 UTC
(an hour ago)
VFR
Wind Visibility
170° at 13 knots 10,000+ meters
Clouds
  • Few at 3,000' AGL
  • Broken at 11,000' AGL
  • Broken at 20,000' AGL
Temperature Dewpoint
6°C / 43°F 0°C / 32°F
Humidity Altimeter Pressure
66% 29.94" Hg 1013.92 hPa